createdAt,value
2023-01-27T00:00:54.481Z,5.11
2023-01-27T00:03:21.556Z,5.00
2023-01-27T00:05:48.380Z,4.98
2023-01-27T00:08:15.623Z,4.94
2023-01-27T00:10:42.899Z,4.85
2023-01-27T00:13:32.071Z,4.73
2023-01-27T00:15:59.203Z,4.68
2023-01-27T00:18:25.889Z,4.71
2023-01-27T00:21:11.157Z,4.77
2023-01-27T00:23:56.583Z,4.65
2023-01-27T00:26:23.553Z,4.73
2023-01-27T00:28:50.402Z,4.61
2023-01-27T00:31:36.839Z,4.66
2023-01-27T00:34:10.657Z,4.65
2023-01-27T00:36:39.298Z,4.76
2023-01-27T00:39:07.489Z,4.73
2023-01-27T00:41:34.577Z,4.73
2023-01-27T00:44:01.758Z,4.62
2023-01-27T00:46:29.369Z,4.71
2023-01-27T00:48:56.138Z,4.65
2023-01-27T00:51:23.662Z,4.58
2023-01-27T00:53:50.736Z,4.74
2023-01-27T00:56:17.953Z,4.71
2023-01-27T00:58:44.844Z,4.74
2023-01-27T01:01:15.467Z,4.72
2023-01-27T01:03:42.588Z,4.73
2023-01-27T01:06:12.175Z,4.66
2023-01-27T01:08:39.152Z,4.84
2023-01-27T01:11:07.665Z,4.80
2023-01-27T01:13:34.975Z,4.76
2023-01-27T01:16:06.955Z,4.63
2023-01-27T01:18:33.829Z,4.67
2023-01-27T01:21:01.277Z,4.66
2023-01-27T01:23:28.030Z,4.73
2023-01-27T01:25:58.043Z,4.72
2023-01-27T01:28:26.086Z,4.73
2023-01-27T01:30:52.974Z,4.76
2023-01-27T01:33:19.787Z,4.69
2023-01-27T01:35:46.751Z,4.77
2023-01-27T01:38:13.477Z,4.74
2023-01-27T01:40:44.406Z,4.74
2023-01-27T01:43:14.255Z,4.72
2023-01-27T01:45:46.381Z,4.73
2023-01-27T01:48:15.990Z,4.68
2023-01-27T01:50:48.268Z,4.65
2023-01-27T01:53:15.369Z,4.58
2023-01-27T01:55:42.561Z,4.68
2023-01-27T01:58:11.963Z,4.65
2023-01-27T02:00:38.939Z,4.71
2023-01-27T02:03:05.632Z,4.62
2023-01-27T02:05:40.997Z,4.64
2023-01-27T02:08:16.630Z,4.73
2023-01-27T02:10:43.427Z,4.65
2023-01-27T02:13:10.338Z,4.66
2023-01-27T02:15:38.802Z,4.60
2023-01-27T02:18:06.928Z,4.67
2023-01-27T02:20:43.045Z,4.70
2023-01-27T02:23:42.158Z,4.67
2023-01-27T02:26:17.772Z,4.67
2023-01-27T02:28:45.122Z,4.56
2023-01-27T02:31:12.264Z,4.56
2023-01-27T02:33:39.176Z,4.45
2023-01-27T02:36:17.747Z,4.56
2023-01-27T02:38:50.886Z,4.70
2023-01-27T02:41:24.027Z,4.58
2023-01-27T02:43:52.902Z,4.57
2023-01-27T02:46:20.020Z,4.54
2023-01-27T02:48:46.816Z,4.52
2023-01-27T02:51:13.837Z,4.49
2023-01-27T02:53:41.172Z,4.42
2023-01-27T02:56:08.181Z,4.54
2023-01-27T02:58:34.948Z,4.41
2023-01-27T03:01:01.912Z,4.41
2023-01-27T03:03:28.872Z,4.43
2023-01-27T03:05:55.691Z,4.34
2023-01-27T03:08:24.934Z,4.35
2023-01-27T03:10:54.198Z,4.12
2023-01-27T03:13:25.567Z,4.27
2023-01-27T03:16:13.436Z,4.18
2023-01-27T03:18:41.380Z,4.20
2023-01-27T03:21:09.230Z,4.29
2023-01-27T03:23:36.026Z,4.17
2023-01-27T03:26:07.021Z,4.16
2023-01-27T03:28:34.399Z,4.20
2023-01-27T03:31:07.331Z,4.13
2023-01-27T03:33:34.817Z,4.15
2023-01-27T03:36:22.213Z,4.29
2023-01-27T03:39:08.058Z,4.28
2023-01-27T03:41:53.297Z,4.31
2023-01-27T03:44:38.587Z,4.22
2023-01-27T03:47:05.607Z,4.25
2023-01-27T03:49:32.891Z,4.22
2023-01-27T03:52:00.587Z,4.26
2023-01-27T03:54:27.795Z,4.19
2023-01-27T03:56:55.409Z,4.21
2023-01-27T03:59:24.043Z,4.30
2023-01-27T04:01:50.891Z,4.31
2023-01-27T04:04:36.057Z,4.33
2023-01-27T04:07:03.275Z,4.15
2023-01-27T04:09:34.528Z,4.24
2023-01-27T04:12:04.563Z,4.24
2023-01-27T04:14:39.338Z,4.01
2023-01-27T04:17:07.721Z,4.21
2023-01-27T04:19:34.439Z,4.29
2023-01-27T04:22:01.989Z,4.27
2023-01-27T04:24:29.147Z,4.22
2023-01-27T04:27:01.667Z,4.28
2023-01-27T04:29:30.948Z,4.26
2023-01-27T04:31:58.873Z,4.29
2023-01-27T04:34:27.246Z,4.34
2023-01-27T04:36:54.986Z,4.32
2023-01-27T04:39:22.593Z,4.26
2023-01-27T04:41:49.978Z,4.23
2023-01-27T04:44:17.524Z,4.39
2023-01-27T04:46:44.494Z,4.34
2023-01-27T04:49:11.493Z,4.28
2023-01-27T04:51:39.547Z,4.33
2023-01-27T04:54:06.640Z,4.38
2023-01-27T04:56:40.179Z,4.37
2023-01-27T04:59:11.142Z,4.37
2023-01-27T05:01:39.489Z,4.38
2023-01-27T05:04:06.395Z,4.41
2023-01-27T05:06:33.576Z,4.38
2023-01-27T05:09:01.412Z,4.41
2023-01-27T05:11:28.264Z,4.36
2023-01-27T05:13:55.657Z,4.50
2023-01-27T05:16:25.391Z,4.53
2023-01-27T05:18:53.389Z,4.40
2023-01-27T05:21:25.206Z,4.44
2023-01-27T05:23:52.408Z,4.51
2023-01-27T05:26:22.295Z,4.53
2023-01-27T05:28:51.595Z,4.54
2023-01-27T05:31:25.634Z,4.49
2023-01-27T05:33:54.726Z,4.48
2023-01-27T05:36:23.245Z,4.42
2023-01-27T05:38:50.160Z,4.39
2023-01-27T05:41:19.147Z,4.42
2023-01-27T05:43:47.947Z,4.41
2023-01-27T05:46:16.169Z,4.34
2023-01-27T05:48:45.574Z,4.34
2023-01-27T05:51:15.169Z,4.31
2023-01-27T05:53:43.332Z,4.38
2023-01-27T05:56:12.254Z,4.30
2023-01-27T05:58:38.926Z,4.15
2023-01-27T06:01:16.961Z,4.24
2023-01-27T06:03:45.086Z,4.23
2023-01-27T06:06:13.437Z,4.35
2023-01-27T06:08:40.843Z,4.42
2023-01-27T06:11:08.444Z,4.40
2023-01-27T06:13:36.026Z,4.24
2023-01-27T06:16:04.704Z,4.36
2023-01-27T06:18:31.856Z,4.29
2023-01-27T06:21:03.478Z,4.18
2023-01-27T06:23:30.616Z,4.16
2023-01-27T06:26:03.158Z,4.06
2023-01-27T06:28:30.200Z,3.95
2023-01-27T06:31:14.520Z,3.84
2023-01-27T06:33:41.769Z,3.83
2023-01-27T06:36:12.279Z,3.73
2023-01-27T06:38:39.121Z,3.80
2023-01-27T06:41:05.959Z,3.90
2023-01-27T06:43:32.873Z,3.88
2023-01-27T06:45:59.788Z,3.90
2023-01-27T06:48:27.209Z,3.85
2023-01-27T06:50:55.086Z,3.89
2023-01-27T06:53:22.525Z,3.93
2023-01-27T06:55:49.213Z,3.76
2023-01-27T06:58:16.294Z,3.86
2023-01-27T07:00:43.419Z,3.87
2023-01-27T07:03:12.300Z,3.84
2023-01-27T07:05:41.009Z,3.86
2023-01-27T07:08:07.735Z,3.83
2023-01-27T07:10:34.431Z,3.76
2023-01-27T07:13:12.000Z,3.81
2023-01-27T07:15:39.119Z,3.65
2023-01-27T07:18:05.931Z,3.92
2023-01-27T07:20:33.548Z,4.02
2023-01-27T07:23:04.741Z,3.97
2023-01-27T07:25:33.778Z,3.96
2023-01-27T07:28:01.735Z,3.87
2023-01-27T07:30:28.910Z,3.91
2023-01-27T07:32:55.824Z,3.94
2023-01-27T07:35:23.518Z,3.85
2023-01-27T07:37:50.339Z,3.96
2023-01-27T07:40:18.376Z,4.01
2023-01-27T07:42:45.116Z,4.15
2023-01-27T07:45:11.871Z,4.00
2023-01-27T07:47:38.590Z,4.08
2023-01-27T07:50:05.762Z,4.13
2023-01-27T07:52:32.483Z,3.99
2023-01-27T07:54:59.237Z,4.00
2023-01-27T07:57:25.996Z,4.02
2023-01-27T07:59:56.637Z,4.04
2023-01-27T08:02:24.451Z,4.03
2023-01-27T08:04:53.494Z,4.07
2023-01-27T08:07:21.656Z,4.08
2023-01-27T08:09:48.888Z,4.09
2023-01-27T08:12:16.045Z,4.15
2023-01-27T08:14:42.745Z,4.17
2023-01-27T08:17:09.477Z,4.21
2023-01-27T08:19:36.153Z,4.17
2023-01-27T08:22:03.093Z,4.20
2023-01-27T08:24:29.892Z,4.14
2023-01-27T08:26:57.127Z,4.17
2023-01-27T08:29:23.926Z,4.14
2023-01-27T08:31:50.719Z,4.04
2023-01-27T08:34:17.561Z,4.14
2023-01-27T08:36:44.440Z,4.17
2023-01-27T08:39:11.684Z,4.14
2023-01-27T08:41:38.777Z,4.14
2023-01-27T08:44:07.069Z,4.10
2023-01-27T08:46:34.358Z,4.11
2023-01-27T08:49:01.380Z,3.96
2023-01-27T08:51:44.267Z,4.02
2023-01-27T08:54:11.031Z,4.03
2023-01-27T08:56:38.012Z,3.96
2023-01-27T08:59:04.889Z,4.07
2023-01-27T09:01:31.617Z,4.03
2023-01-27T09:03:58.332Z,4.07
2023-01-27T09:06:25.462Z,4.17
2023-01-27T09:09:11.999Z,4.20
2023-01-27T09:11:41.854Z,4.24
2023-01-27T09:14:08.807Z,4.11
2023-01-27T09:16:35.964Z,4.11
2023-01-27T09:19:04.117Z,4.09
2023-01-27T09:21:31.624Z,4.32
2023-01-27T09:23:58.374Z,4.27
2023-01-27T09:26:25.187Z,4.32
2023-01-27T09:28:51.893Z,4.26
2023-01-27T09:31:18.823Z,4.34
2023-01-27T09:33:45.685Z,4.31
2023-01-27T09:36:17.273Z,4.30
2023-01-27T09:38:52.633Z,4.36
2023-01-27T09:41:28.250Z,4.35
2023-01-27T09:44:26.698Z,4.38
2023-01-27T09:47:17.349Z,4.33
2023-01-27T09:50:15.725Z,4.24
2023-01-27T09:52:58.284Z,4.43
2023-01-27T09:56:01.727Z,4.36
2023-01-27T09:58:50.111Z,4.37
2023-01-27T10:01:33.846Z,4.27
2023-01-27T10:04:09.748Z,4.18
2023-01-27T10:06:56.496Z,4.24
2023-01-27T10:09:47.907Z,4.22
2023-01-27T10:12:39.348Z,4.23
2023-01-27T10:15:21.171Z,4.27
2023-01-27T10:18:11.995Z,4.25
2023-01-27T10:21:05.627Z,4.23
2023-01-27T10:24:00.406Z,4.07
2023-01-27T10:26:36.216Z,4.08
2023-01-27T10:29:18.576Z,4.08
2023-01-27T10:32:01.813Z,4.12
2023-01-27T10:34:37.847Z,4.11
2023-01-27T10:37:10.330Z,4.07
2023-01-27T10:39:47.032Z,3.90
2023-01-27T10:42:33.082Z,4.04
2023-01-27T10:45:32.246Z,4.07
2023-01-27T10:48:20.241Z,4.02
2023-01-27T10:50:57.078Z,4.08
2023-01-27T10:53:38.478Z,4.02
2023-01-27T10:56:12.566Z,4.13
2023-01-27T10:58:55.739Z,4.05
2023-01-27T11:01:32.120Z,4.12
2023-01-27T11:04:13.739Z,4.16
2023-01-27T11:06:42.913Z,4.05
2023-01-27T11:09:27.471Z,4.12
2023-01-27T11:11:58.766Z,4.15
2023-01-27T11:14:29.274Z,4.17
2023-01-27T11:17:17.462Z,4.21
2023-01-27T11:19:46.197Z,4.33
2023-01-27T11:22:21.925Z,4.30
2023-01-27T11:25:29.507Z,4.21
2023-01-27T11:28:13.043Z,4.17
2023-01-27T11:30:49.896Z,4.22
2023-01-27T11:33:31.473Z,4.25
2023-01-27T11:35:58.167Z,4.30
2023-01-27T11:38:25.132Z,4.30
2023-01-27T11:40:53.689Z,4.37
2023-01-27T11:43:25.880Z,4.57
2023-01-27T11:46:00.181Z,4.49
2023-01-27T11:48:36.526Z,4.55
2023-01-27T11:51:04.227Z,4.75
2023-01-27T11:53:39.595Z,4.76
2023-01-27T11:56:15.945Z,4.62
2023-01-27T11:59:01.308Z,4.59
2023-01-27T12:01:48.003Z,4.48
2023-01-27T12:04:57.503Z,4.49
2023-01-27T12:07:31.354Z,4.45
2023-01-27T12:09:57.988Z,4.38
2023-01-27T12:12:26.824Z,4.35
2023-01-27T12:14:58.872Z,4.17
2023-01-27T12:17:40.213Z,4.21
2023-01-27T12:20:32.823Z,4.38
2023-01-27T12:23:22.160Z,4.19
2023-01-27T12:25:58.478Z,4.14
2023-01-27T12:28:37.277Z,4.17
2023-01-27T12:31:13.784Z,4.22
2023-01-27T12:33:51.139Z,4.19
2023-01-27T12:36:24.130Z,3.98
2023-01-27T12:38:53.601Z,3.98
2023-01-27T12:41:24.081Z,3.70
2023-01-27T12:43:54.563Z,3.66
2023-01-27T12:46:26.387Z,3.69
2023-01-27T12:49:00.276Z,3.72
2023-01-27T12:51:55.829Z,3.60
2023-01-27T12:54:28.459Z,3.74
2023-01-27T12:57:00.947Z,4.14
2023-01-27T12:59:28.312Z,4.23
2023-01-27T13:02:17.061Z,4.06
2023-01-27T13:04:46.532Z,3.92
2023-01-27T13:07:16.675Z,3.66
2023-01-27T13:09:56.413Z,3.79
2023-01-27T13:12:46.393Z,3.92
2023-01-27T13:15:19.256Z,3.94
2023-01-27T13:17:48.762Z,3.61
2023-01-27T13:20:30.901Z,3.69
2023-01-27T13:23:10.807Z,3.70
2023-01-27T13:25:55.202Z,3.61
2023-01-27T13:28:50.245Z,3.68
2023-01-27T13:31:31.275Z,3.72
2023-01-27T13:34:11.193Z,3.57
2023-01-27T13:37:02.392Z,3.68
2023-01-27T13:39:47.387Z,3.62
2023-01-27T13:42:37.302Z,3.63
2023-01-27T13:45:21.556Z,3.65
2023-01-27T13:48:14.276Z,3.39
2023-01-27T13:50:45.798Z,3.51
2023-01-27T13:53:16.393Z,3.51
2023-01-27T13:56:01.737Z,3.51
2023-01-27T13:58:50.559Z,3.36
2023-01-27T14:01:36.141Z,3.47
2023-01-27T14:04:10.277Z,3.54
2023-01-27T14:07:00.314Z,3.37
2023-01-27T14:09:29.926Z,3.69
2023-01-27T14:12:09.927Z,3.67
2023-01-27T14:14:58.281Z,3.70
2023-01-27T14:17:52.164Z,3.65
2023-01-27T14:20:29.964Z,3.52
2023-01-27T14:23:21.326Z,3.42
2023-01-27T14:26:10.065Z,3.36
2023-01-27T14:29:03.090Z,3.35
2023-01-27T14:31:57.136Z,3.29
2023-01-27T14:34:29.870Z,3.29
2023-01-27T14:37:27.642Z,3.22
2023-01-27T14:39:57.300Z,3.11
2023-01-27T14:42:35.386Z,3.11
2023-01-27T14:45:23.613Z,3.03
2023-01-27T14:48:18.231Z,3.13
2023-01-27T14:50:58.067Z,2.97
2023-01-27T14:53:34.131Z,3.07
2023-01-27T14:56:11.584Z,3.14
2023-01-27T14:58:53.907Z,3.05
2023-01-27T15:01:33.643Z,2.99
2023-01-27T15:04:03.067Z,3.03
2023-01-27T15:06:51.414Z,3.11
2023-01-27T15:09:37.193Z,3.06
2023-01-27T15:12:22.729Z,2.95
2023-01-27T15:14:59.258Z,2.82
2023-01-27T15:17:52.679Z,2.71
2023-01-27T15:20:53.743Z,2.53
2023-01-27T15:23:42.197Z,2.68
2023-01-27T15:26:10.942Z,2.48
2023-01-27T15:28:41.375Z,2.58
2023-01-27T15:31:19.514Z,2.58
2023-01-27T15:33:50.043Z,2.56
2023-01-27T15:36:24.767Z,2.45
2023-01-27T15:39:09.758Z,2.32
2023-01-27T15:41:52.325Z,2.34
2023-01-27T15:44:32.113Z,2.43
2023-01-27T15:47:12.989Z,2.49
2023-01-27T15:49:48.334Z,2.39
2023-01-27T15:52:44.613Z,2.31
2023-01-27T15:55:25.758Z,2.25
2023-01-27T15:58:24.296Z,2.33
2023-01-27T16:00:53.971Z,2.64
2023-01-27T16:03:26.211Z,2.71
2023-01-27T16:06:08.948Z,2.75
2023-01-27T16:08:52.380Z,2.53
2023-01-27T16:11:22.849Z,2.77
2023-01-27T16:13:53.013Z,2.62
2023-01-27T16:16:19.700Z,2.54
2023-01-27T16:18:57.468Z,2.43
2023-01-27T16:21:47.683Z,2.58
2023-01-27T16:24:24.227Z,2.44
2023-01-27T16:27:06.025Z,2.49
2023-01-27T16:29:53.560Z,2.54
2023-01-27T16:32:21.935Z,2.57
2023-01-27T16:35:02.422Z,2.69
2023-01-27T16:37:31.303Z,2.58
2023-01-27T16:40:21.539Z,2.46
2023-01-27T16:43:03.581Z,2.27
2023-01-27T16:45:41.464Z,2.28
2023-01-27T16:48:32.385Z,2.12
2023-01-27T16:51:15.347Z,2.37
2023-01-27T16:53:45.492Z,2.34
2023-01-27T16:56:34.689Z,2.22
2023-01-27T16:59:10.242Z,2.18
2023-01-27T17:01:50.535Z,2.17
2023-01-27T17:04:27.382Z,2.19
2023-01-27T17:06:59.427Z,2.21
2023-01-27T17:09:32.042Z,2.24
2023-01-27T17:11:59.232Z,2.26
2023-01-27T17:14:41.937Z,2.20
2023-01-27T17:17:19.313Z,2.19
2023-01-27T17:19:51.479Z,2.16
2023-01-27T17:22:43.446Z,2.26
2023-01-27T17:25:15.255Z,2.33
2023-01-27T17:27:44.379Z,2.73
2023-01-27T17:30:22.724Z,2.48
2023-01-27T17:33:00.862Z,2.35
2023-01-27T17:35:32.986Z,2.32
2023-01-27T17:38:20.088Z,2.16
2023-01-27T17:40:49.290Z,2.07
2023-01-27T17:43:23.466Z,2.03
2023-01-27T17:46:14.297Z,1.97
2023-01-27T17:48:47.136Z,1.96
2023-01-27T17:51:41.595Z,2.10
2023-01-27T17:54:23.301Z,2.06
2023-01-27T17:56:56.186Z,2.06
2023-01-27T17:59:26.667Z,2.04
2023-01-27T18:01:55.050Z,2.02
2023-01-27T18:04:22.958Z,1.94
2023-01-27T18:06:51.068Z,2.01
2023-01-27T18:09:21.048Z,1.98
2023-01-27T18:11:54.645Z,2.15
2023-01-27T18:14:21.890Z,2.12
2023-01-27T18:16:59.776Z,2.08
2023-01-27T18:19:26.746Z,2.10
2023-01-27T18:22:16.467Z,2.03
2023-01-27T18:24:57.572Z,1.97
2023-01-27T18:27:31.377Z,2.07
2023-01-27T18:30:02.867Z,2.04
2023-01-27T18:32:38.069Z,1.78
2023-01-27T18:35:26.245Z,1.81
2023-01-27T18:38:21.433Z,1.74
2023-01-27T18:40:48.319Z,1.59
2023-01-27T18:43:15.016Z,1.61
2023-01-27T18:45:43.771Z,1.77
2023-01-27T18:48:14.668Z,1.64
2023-01-27T18:50:45.502Z,1.67
2023-01-27T18:53:17.853Z,1.57
2023-01-27T18:55:44.623Z,1.38
2023-01-27T18:58:14.437Z,1.43
2023-01-27T19:00:53.301Z,1.42
2023-01-27T19:03:23.352Z,1.48
2023-01-27T19:05:50.682Z,1.58
2023-01-27T19:08:19.945Z,1.45
2023-01-27T19:10:48.179Z,1.29
2023-01-27T19:13:15.770Z,1.28
2023-01-27T19:15:50.456Z,1.34
2023-01-27T19:18:26.369Z,1.32
2023-01-27T19:20:53.207Z,1.24
2023-01-27T19:23:20.762Z,1.17
2023-01-27T19:25:51.328Z,1.25
2023-01-27T19:28:26.015Z,1.33
2023-01-27T19:30:52.720Z,1.44
2023-01-27T19:33:22.492Z,1.49
2023-01-27T19:35:55.380Z,1.33
2023-01-27T19:38:23.145Z,1.46
2023-01-27T19:40:49.825Z,1.47
2023-01-27T19:43:17.262Z,1.31
2023-01-27T19:45:46.295Z,1.22
2023-01-27T19:48:23.919Z,1.25
2023-01-27T19:50:52.022Z,1.32
2023-01-27T19:53:19.897Z,1.33
2023-01-27T19:55:49.806Z,1.10
2023-01-27T19:58:20.544Z,1.24
2023-01-27T20:00:47.617Z,1.30
2023-01-27T20:03:14.461Z,1.15
2023-01-27T20:05:41.183Z,1.24
2023-01-27T20:08:14.605Z,1.18
2023-01-27T20:10:41.433Z,1.09
2023-01-27T20:13:14.039Z,1.11
2023-01-27T20:15:41.319Z,1.14
2023-01-27T20:18:13.500Z,1.17
2023-01-27T20:20:40.172Z,1.14
2023-01-27T20:23:06.999Z,1.16
2023-01-27T20:25:34.173Z,1.14
2023-01-27T20:28:01.670Z,1.17
2023-01-27T20:30:32.376Z,1.34
2023-01-27T20:33:00.731Z,1.34
2023-01-27T20:35:27.444Z,1.23
2023-01-27T20:37:54.940Z,1.23
2023-01-27T20:40:27.747Z,1.40
2023-01-27T20:42:54.593Z,1.54
2023-01-27T20:45:22.683Z,1.52
2023-01-27T20:47:50.808Z,1.39
2023-01-27T20:50:18.217Z,1.35
2023-01-27T20:52:45.318Z,1.34
2023-01-27T20:55:14.662Z,1.40
2023-01-27T20:57:41.613Z,1.29
2023-01-27T21:00:11.288Z,1.31
2023-01-27T21:02:40.626Z,1.36
2023-01-27T21:05:08.018Z,1.24
2023-01-27T21:07:34.775Z,1.20
2023-01-27T21:10:01.449Z,1.25
2023-01-27T21:12:29.428Z,1.25
2023-01-27T21:14:57.674Z,1.25
2023-01-27T21:17:24.590Z,1.30
2023-01-27T21:19:51.251Z,1.30
2023-01-27T21:22:17.921Z,1.28
2023-01-27T21:24:44.548Z,1.31
2023-01-27T21:27:12.076Z,1.24
2023-01-27T21:29:40.689Z,1.21
2023-01-27T21:32:07.376Z,1.12
2023-01-27T21:34:34.114Z,1.16
2023-01-27T21:37:00.796Z,1.15
2023-01-27T21:39:27.505Z,1.14
2023-01-27T21:41:54.240Z,1.16
2023-01-27T21:44:44.868Z,1.21
2023-01-27T21:47:13.658Z,1.33
2023-01-27T21:50:00.922Z,1.40
2023-01-27T21:52:35.426Z,1.51
2023-01-27T21:55:04.630Z,1.35
2023-01-27T21:57:32.168Z,1.26
2023-01-27T21:59:59.074Z,1.27
2023-01-27T22:02:26.385Z,1.35
2023-01-27T22:04:53.200Z,1.49
2023-01-27T22:07:19.958Z,1.46
2023-01-27T22:09:47.008Z,1.30
2023-01-27T22:12:15.624Z,1.22
2023-01-27T22:14:42.913Z,1.18
2023-01-27T22:17:09.950Z,1.16
2023-01-27T22:19:38.711Z,1.14
2023-01-27T22:22:07.383Z,1.12
2023-01-27T22:24:34.039Z,1.17
2023-01-27T22:27:00.928Z,1.13
2023-01-27T22:29:27.619Z,1.09
2023-01-27T22:31:54.383Z,1.14
2023-01-27T22:34:21.090Z,1.02
2023-01-27T22:36:49.733Z,0.95
2023-01-27T22:39:16.990Z,0.98
2023-01-27T22:41:44.725Z,0.90
2023-01-27T22:44:13.249Z,0.87
2023-01-27T22:46:41.586Z,0.84
2023-01-27T22:49:09.434Z,0.72
2023-01-27T22:51:36.139Z,0.71
2023-01-27T22:54:02.926Z,0.67
2023-01-27T22:56:29.675Z,0.70
2023-01-27T22:58:56.487Z,0.71
2023-01-27T23:01:23.448Z,0.77
2023-01-27T23:03:50.353Z,0.81
2023-01-27T23:06:17.161Z,0.81
2023-01-27T23:08:43.792Z,0.75
2023-01-27T23:11:11.093Z,0.74
2023-01-27T23:13:37.793Z,0.76
2023-01-27T23:16:05.123Z,0.81
2023-01-27T23:18:32.884Z,0.80
2023-01-27T23:21:06.778Z,0.86
2023-01-27T23:23:36.987Z,0.86
2023-01-27T23:26:08.659Z,0.95
2023-01-27T23:28:37.843Z,1.03
2023-01-27T23:31:08.588Z,0.96
2023-01-27T23:33:36.698Z,0.82
2023-01-27T23:36:03.953Z,0.79
2023-01-27T23:38:49.647Z,0.82
2023-01-27T23:41:18.535Z,0.81
2023-01-27T23:43:50.686Z,0.83
2023-01-27T23:46:17.445Z,0.68
2023-01-27T23:48:44.367Z,0.57
2023-01-27T23:51:13.646Z,0.58
2023-01-27T23:53:40.566Z,0.61
2023-01-27T23:56:09.259Z,0.61
2023-01-27T23:58:35.952Z,0.66
